sensor_id;sensor_type;location;lat;lon;timestamp;temperature;humidity
36716;DHT22;22699;51.034;3.730;2023-02-28T00:00:29;3.50;93.80
36716;DHT22;22699;51.034;3.730;2023-02-28T00:02:55;3.50;93.90
36716;DHT22;22699;51.034;3.730;2023-02-28T00:05:22;3.50;94.00
36716;DHT22;22699;51.034;3.730;2023-02-28T00:07:49;3.50;94.10
36716;DHT22;22699;51.034;3.730;2023-02-28T00:10:20;3.50;94.10
36716;DHT22;22699;51.034;3.730;2023-02-28T00:12:52;3.50;94.00
36716;DHT22;22699;51.034;3.730;2023-02-28T00:15:18;3.50;94.00
36716;DHT22;22699;51.034;3.730;2023-02-28T00:17:44;3.50;94.10
36716;DHT22;22699;51.034;3.730;2023-02-28T00:20:11;3.60;94.40
36716;DHT22;22699;51.034;3.730;2023-02-28T00:22:45;3.60;94.00
36716;DHT22;22699;51.034;3.730;2023-02-28T00:25:14;3.60;94.10
36716;DHT22;22699;51.034;3.730;2023-02-28T00:27:40;3.50;94.20
36716;DHT22;22699;51.034;3.730;2023-02-28T00:30:10;3.50;94.40
36716;DHT22;22699;51.034;3.730;2023-02-28T00:32:36;3.50;94.40
36716;DHT22;22699;51.034;3.730;2023-02-28T00:35:02;3.50;94.40
36716;DHT22;22699;51.034;3.730;2023-02-28T00:37:31;3.50;94.60
36716;DHT22;22699;51.034;3.730;2023-02-28T00:39:57;3.50;94.70
36716;DHT22;22699;51.034;3.730;2023-02-28T00:42:23;3.50;94.60
36716;DHT22;22699;51.034;3.730;2023-02-28T00:44:49;3.40;94.80
36716;DHT22;22699;51.034;3.730;2023-02-28T00:47:14;3.40;95.00
36716;DHT22;22699;51.034;3.730;2023-02-28T00:49:41;3.40;95.10
36716;DHT22;22699;51.034;3.730;2023-02-28T00:52:06;3.40;95.30
36716;DHT22;22699;51.034;3.730;2023-02-28T00:54:32;3.40;95.20
36716;DHT22;22699;51.034;3.730;2023-02-28T00:56:59;3.40;95.30
36716;DHT22;22699;51.034;3.730;2023-02-28T00:59:25;3.40;95.50
36716;DHT22;22699;51.034;3.730;2023-02-28T01:01:53;3.40;95.70
36716;DHT22;22699;51.034;3.730;2023-02-28T01:04:18;3.40;95.80
36716;DHT22;22699;51.034;3.730;2023-02-28T01:06:44;3.40;95.80
36716;DHT22;22699;51.034;3.730;2023-02-28T01:09:11;3.40;95.90
36716;DHT22;22699;51.034;3.730;2023-02-28T01:11:39;3.30;96.10
36716;DHT22;22699;51.034;3.730;2023-02-28T01:14:07;3.30;96.30
36716;DHT22;22699;51.034;3.730;2023-02-28T01:16:34;3.30;96.40
36716;DHT22;22699;51.034;3.730;2023-02-28T01:18:59;3.30;96.50
36716;DHT22;22699;51.034;3.730;2023-02-28T01:21:25;3.30;96.70
36716;DHT22;22699;51.034;3.730;2023-02-28T01:23:50;3.30;96.80
36716;DHT22;22699;51.034;3.730;2023-02-28T01:26:19;3.30;96.90
36716;DHT22;22699;51.034;3.730;2023-02-28T01:28:45;3.30;97.00
36716;DHT22;22699;51.034;3.730;2023-02-28T01:31:11;3.30;97.00
36716;DHT22;22699;51.034;3.730;2023-02-28T01:33:37;3.30;97.20
36716;DHT22;22699;51.034;3.730;2023-02-28T01:36:06;3.20;97.40
36716;DHT22;22699;51.034;3.730;2023-02-28T01:38:33;3.30;97.50
36716;DHT22;22699;51.034;3.730;2023-02-28T01:40:59;3.20;97.60
36716;DHT22;22699;51.034;3.730;2023-02-28T01:43:29;3.30;97.60
36716;DHT22;22699;51.034;3.730;2023-02-28T01:45:57;3.20;97.80
36716;DHT22;22699;51.034;3.730;2023-02-28T01:48:30;3.20;97.90
36716;DHT22;22699;51.034;3.730;2023-02-28T01:51:00;3.20;98.10
36716;DHT22;22699;51.034;3.730;2023-02-28T01:53:30;3.20;98.30
36716;DHT22;22699;51.034;3.730;2023-02-28T01:55:58;3.20;98.50
36716;DHT22;22699;51.034;3.730;2023-02-28T01:58:24;3.20;98.40
36716;DHT22;22699;51.034;3.730;2023-02-28T02:00:52;3.30;98.40
36716;DHT22;22699;51.034;3.730;2023-02-28T02:03:19;3.30;98.40
36716;DHT22;22699;51.034;3.730;2023-02-28T02:05:46;3.30;98.50
36716;DHT22;22699;51.034;3.730;2023-02-28T02:08:17;3.30;98.70
36716;DHT22;22699;51.034;3.730;2023-02-28T02:10:49;3.30;99.00
36716;DHT22;22699;51.034;3.730;2023-02-28T02:16:41;3.20;99.20
36716;DHT22;22699;51.034;3.730;2023-02-28T02:25:19;3.10;99.90
36716;DHT22;22699;51.034;3.730;2023-02-28T02:36:27;3.00;99.90
36716;DHT22;22699;51.034;3.730;2023-02-28T02:39:12;3.00;99.90
36716;DHT22;22699;51.034;3.730;2023-02-28T02:41:52;3.00;99.90
36716;DHT22;22699;51.034;3.730;2023-02-28T02:44:30;3.00;99.90
36716;DHT22;22699;51.034;3.730;2023-02-28T02:47:10;3.00;99.90
36716;DHT22;22699;51.034;3.730;2023-02-28T02:49:38;3.00;99.90
36716;DHT22;22699;51.034;3.730;2023-02-28T02:52:12;2.90;99.90
36716;DHT22;22699;51.034;3.730;2023-02-28T02:54:42;3.00;99.90
36716;DHT22;22699;51.034;3.730;2023-02-28T02:57:21;2.90;99.90
36716;DHT22;22699;51.034;3.730;2023-02-28T02:59:50;2.90;99.90
36716;DHT22;22699;51.034;3.730;2023-02-28T03:02:21;3.00;99.90
36716;DHT22;22699;51.034;3.730;2023-02-28T03:04:53;3.00;99.90
36716;DHT22;22699;51.034;3.730;2023-02-28T03:07:26;2.90;99.90
36716;DHT22;22699;51.034;3.730;2023-02-28T03:09:52;2.80;99.90
36716;DHT22;22699;51.034;3.730;2023-02-28T03:12:19;2.80;99.90
36716;DHT22;22699;51.034;3.730;2023-02-28T03:15:07;2.80;99.90
36716;DHT22;22699;51.034;3.730;2023-02-28T03:18:01;2.90;99.90
36716;DHT22;22699;51.034;3.730;2023-02-28T03:20:40;2.80;99.90
36716;DHT22;22699;51.034;3.730;2023-02-28T03:23:19;2.80;99.90
36716;DHT22;22699;51.034;3.730;2023-02-28T03:26:02;2.70;99.90
36716;DHT22;22699;51.034;3.730;2023-02-28T03:28:43;2.70;99.90
36716;DHT22;22699;51.034;3.730;2023-02-28T03:31:36;2.70;99.90
36716;DHT22;22699;51.034;3.730;2023-02-28T03:34:19;2.70;99.90
36716;DHT22;22699;51.034;3.730;2023-02-28T03:36:53;2.70;99.90
36716;DHT22;22699;51.034;3.730;2023-02-28T03:42:36;2.70;99.90
36716;DHT22;22699;51.034;3.730;2023-02-28T03:45:26;2.70;99.90
36716;DHT22;22699;51.034;3.730;2023-02-28T03:50:21;2.80;99.90
36716;DHT22;22699;51.034;3.730;2023-02-28T03:52:56;2.80;99.90
36716;DHT22;22699;51.034;3.730;2023-02-28T03:55:29;2.80;99.90
36716;DHT22;22699;51.034;3.730;2023-02-28T03:58:27;2.80;99.90
36716;DHT22;22699;51.034;3.730;2023-02-28T04:00:57;2.80;99.90
36716;DHT22;22699;51.034;3.730;2023-02-28T04:03:24;2.90;99.90
36716;DHT22;22699;51.034;3.730;2023-02-28T04:05:54;2.90;99.90
36716;DHT22;22699;51.034;3.730;2023-02-28T04:08:21;2.90;99.90
36716;DHT22;22699;51.034;3.730;2023-02-28T04:10:53;2.90;99.90
36716;DHT22;22699;51.034;3.730;2023-02-28T04:13:22;3.00;99.90
36716;DHT22;22699;51.034;3.730;2023-02-28T04:15:48;3.10;99.90
36716;DHT22;22699;51.034;3.730;2023-02-28T04:18:13;3.20;99.90
36716;DHT22;22699;51.034;3.730;2023-02-28T04:20:39;3.30;99.90
36716;DHT22;22699;51.034;3.730;2023-02-28T04:23:05;3.30;99.90
36716;DHT22;22699;51.034;3.730;2023-02-28T04:25:30;3.30;99.90
36716;DHT22;22699;51.034;3.730;2023-02-28T04:27:56;3.30;99.90
36716;DHT22;22699;51.034;3.730;2023-02-28T04:30:22;3.40;99.90
36716;DHT22;22699;51.034;3.730;2023-02-28T04:32:48;3.50;99.90
36716;DHT22;22699;51.034;3.730;2023-02-28T04:35:13;3.50;99.90
36716;DHT22;22699;51.034;3.730;2023-02-28T04:37:40;3.60;99.90
36716;DHT22;22699;51.034;3.730;2023-02-28T04:40:06;3.70;99.90
36716;DHT22;22699;51.034;3.730;2023-02-28T04:42:33;3.80;99.90
36716;DHT22;22699;51.034;3.730;2023-02-28T04:45:04;3.70;99.90
36716;DHT22;22699;51.034;3.730;2023-02-28T04:47:30;3.70;99.90
36716;DHT22;22699;51.034;3.730;2023-02-28T04:49:56;3.60;99.90
36716;DHT22;22699;51.034;3.730;2023-02-28T04:52:22;3.60;99.90
36716;DHT22;22699;51.034;3.730;2023-02-28T04:54:47;3.50;99.90
36716;DHT22;22699;51.034;3.730;2023-02-28T04:57:14;3.50;99.90
36716;DHT22;22699;51.034;3.730;2023-02-28T04:59:41;3.50;99.90
36716;DHT22;22699;51.034;3.730;2023-02-28T05:02:06;3.40;99.90
36716;DHT22;22699;51.034;3.730;2023-02-28T05:04:33;3.40;99.90
36716;DHT22;22699;51.034;3.730;2023-02-28T05:07:00;3.40;99.90
36716;DHT22;22699;51.034;3.730;2023-02-28T05:09:26;3.40;99.90
36716;DHT22;22699;51.034;3.730;2023-02-28T05:11:51;3.50;99.90
36716;DHT22;22699;51.034;3.730;2023-02-28T05:14:17;3.60;99.90
36716;DHT22;22699;51.034;3.730;2023-02-28T05:16:42;3.60;99.90
36716;DHT22;22699;51.034;3.730;2023-02-28T05:19:09;3.60;99.90
36716;DHT22;22699;51.034;3.730;2023-02-28T05:21:37;3.60;99.90
36716;DHT22;22699;51.034;3.730;2023-02-28T05:24:06;3.50;99.90
36716;DHT22;22699;51.034;3.730;2023-02-28T05:26:37;3.60;99.90
36716;DHT22;22699;51.034;3.730;2023-02-28T05:29:03;3.60;99.90
36716;DHT22;22699;51.034;3.730;2023-02-28T05:31:29;3.50;99.90
36716;DHT22;22699;51.034;3.730;2023-02-28T05:33:56;3.50;99.90
36716;DHT22;22699;51.034;3.730;2023-02-28T05:36:22;3.60;99.90
36716;DHT22;22699;51.034;3.730;2023-02-28T05:38:49;3.70;99.90
36716;DHT22;22699;51.034;3.730;2023-02-28T05:41:18;3.80;99.90
36716;DHT22;22699;51.034;3.730;2023-02-28T05:43:46;3.70;99.90
36716;DHT22;22699;51.034;3.730;2023-02-28T05:46:12;3.70;99.90
36716;DHT22;22699;51.034;3.730;2023-02-28T05:48:41;3.90;99.90
36716;DHT22;22699;51.034;3.730;2023-02-28T05:51:08;3.90;99.90
36716;DHT22;22699;51.034;3.730;2023-02-28T05:53:34;3.90;99.90
36716;DHT22;22699;51.034;3.730;2023-02-28T05:56:00;3.80;99.90
36716;DHT22;22699;51.034;3.730;2023-02-28T05:58:26;3.80;99.90
36716;DHT22;22699;51.034;3.730;2023-02-28T06:00:57;3.90;99.90
36716;DHT22;22699;51.034;3.730;2023-02-28T06:03:23;3.80;99.90
36716;DHT22;22699;51.034;3.730;2023-02-28T06:05:49;3.70;99.90
36716;DHT22;22699;51.034;3.730;2023-02-28T06:08:15;3.80;99.90
36716;DHT22;22699;51.034;3.730;2023-02-28T06:10:41;3.60;99.90
36716;DHT22;22699;51.034;3.730;2023-02-28T06:13:07;3.70;99.90
36716;DHT22;22699;51.034;3.730;2023-02-28T06:15:32;3.70;99.90
36716;DHT22;22699;51.034;3.730;2023-02-28T06:17:58;3.70;99.90
36716;DHT22;22699;51.034;3.730;2023-02-28T06:20:25;3.80;99.90
36716;DHT22;22699;51.034;3.730;2023-02-28T06:22:55;3.70;99.90
36716;DHT22;22699;51.034;3.730;2023-02-28T06:25:21;3.60;99.90
36716;DHT22;22699;51.034;3.730;2023-02-28T06:27:48;3.70;99.90
36716;DHT22;22699;51.034;3.730;2023-02-28T06:30:14;3.70;99.90
36716;DHT22;22699;51.034;3.730;2023-02-28T06:32:40;3.70;99.90
36716;DHT22;22699;51.034;3.730;2023-02-28T06:35:06;3.80;99.90
36716;DHT22;22699;51.034;3.730;2023-02-28T06:37:32;3.80;99.90
36716;DHT22;22699;51.034;3.730;2023-02-28T06:39:58;3.80;99.90
36716;DHT22;22699;51.034;3.730;2023-02-28T06:42:24;3.80;99.90
36716;DHT22;22699;51.034;3.730;2023-02-28T06:44:54;3.80;99.90
36716;DHT22;22699;51.034;3.730;2023-02-28T06:47:22;3.80;99.90
36716;DHT22;22699;51.034;3.730;2023-02-28T06:49:48;4.00;99.90
36716;DHT22;22699;51.034;3.730;2023-02-28T06:52:14;4.00;99.90
36716;DHT22;22699;51.034;3.730;2023-02-28T06:54:40;4.00;99.90
36716;DHT22;22699;51.034;3.730;2023-02-28T06:57:06;3.90;99.90
36716;DHT22;22699;51.034;3.730;2023-02-28T06:59:32;3.90;99.90
36716;DHT22;22699;51.034;3.730;2023-02-28T07:01:57;3.90;99.90
36716;DHT22;22699;51.034;3.730;2023-02-28T07:04:23;3.90;99.90
36716;DHT22;22699;51.034;3.730;2023-02-28T07:06:49;3.90;99.90
36716;DHT22;22699;51.034;3.730;2023-02-28T07:09:14;3.90;99.90
36716;DHT22;22699;51.034;3.730;2023-02-28T07:11:40;3.90;99.90
36716;DHT22;22699;51.034;3.730;2023-02-28T07:14:09;3.90;99.90
36716;DHT22;22699;51.034;3.730;2023-02-28T07:16:35;3.90;99.90
36716;DHT22;22699;51.034;3.730;2023-02-28T07:19:01;3.70;99.90
36716;DHT22;22699;51.034;3.730;2023-02-28T07:21:28;3.70;99.90
36716;DHT22;22699;51.034;3.730;2023-02-28T07:23:53;3.70;99.90
36716;DHT22;22699;51.034;3.730;2023-02-28T07:26:20;3.80;99.90
36716;DHT22;22699;51.034;3.730;2023-02-28T07:28:47;3.80;99.90
36716;DHT22;22699;51.034;3.730;2023-02-28T07:31:13;3.90;99.90
36716;DHT22;22699;51.034;3.730;2023-02-28T07:33:40;3.80;99.90
36716;DHT22;22699;51.034;3.730;2023-02-28T07:36:14;3.80;99.90
36716;DHT22;22699;51.034;3.730;2023-02-28T07:38:45;3.80;99.90
36716;DHT22;22699;51.034;3.730;2023-02-28T07:41:14;3.90;99.90
36716;DHT22;22699;51.034;3.730;2023-02-28T07:43:40;4.10;99.90
36716;DHT22;22699;51.034;3.730;2023-02-28T07:46:08;4.30;99.90
36716;DHT22;22699;51.034;3.730;2023-02-28T07:48:34;4.40;99.90
36716;DHT22;22699;51.034;3.730;2023-02-28T07:51:01;4.50;99.90
36716;DHT22;22699;51.034;3.730;2023-02-28T07:53:28;4.50;99.90
36716;DHT22;22699;51.034;3.730;2023-02-28T07:55:56;4.60;99.90
36716;DHT22;22699;51.034;3.730;2023-02-28T07:58:22;4.70;99.90
36716;DHT22;22699;51.034;3.730;2023-02-28T08:00:47;4.70;99.90
36716;DHT22;22699;51.034;3.730;2023-02-28T08:03:13;4.70;99.90
36716;DHT22;22699;51.034;3.730;2023-02-28T08:05:41;4.60;99.90
36716;DHT22;22699;51.034;3.730;2023-02-28T08:08:08;4.70;99.90
36716;DHT22;22699;51.034;3.730;2023-02-28T08:10:35;4.80;99.80
36716;DHT22;22699;51.034;3.730;2023-02-28T08:13:00;4.80;99.90
36716;DHT22;22699;51.034;3.730;2023-02-28T08:15:26;4.80;99.90
36716;DHT22;22699;51.034;3.730;2023-02-28T08:17:52;5.20;99.70
36716;DHT22;22699;51.034;3.730;2023-02-28T08:20:17;5.70;99.10
36716;DHT22;22699;51.034;3.730;2023-02-28T08:22:43;5.90;98.00
36716;DHT22;22699;51.034;3.730;2023-02-28T08:25:09;6.00;97.50
36716;DHT22;22699;51.034;3.730;2023-02-28T08:27:35;6.10;97.20
36716;DHT22;22699;51.034;3.730;2023-02-28T08:30:01;6.20;97.30
36716;DHT22;22699;51.034;3.730;2023-02-28T08:32:27;6.30;96.70
36716;DHT22;22699;51.034;3.730;2023-02-28T08:34:52;6.40;96.20
36716;DHT22;22699;51.034;3.730;2023-02-28T08:37:18;6.30;96.40
36716;DHT22;22699;51.034;3.730;2023-02-28T08:39:43;6.00;96.30
36716;DHT22;22699;51.034;3.730;2023-02-28T08:42:09;5.90;96.30
36716;DHT22;22699;51.034;3.730;2023-02-28T08:44:34;5.90;96.30
36716;DHT22;22699;51.034;3.730;2023-02-28T08:47:00;6.00;96.20
36716;DHT22;22699;51.034;3.730;2023-02-28T08:49:26;6.00;96.20
36716;DHT22;22699;51.034;3.730;2023-02-28T08:51:51;5.90;96.10
36716;DHT22;22699;51.034;3.730;2023-02-28T08:54:17;5.60;96.50
36716;DHT22;22699;51.034;3.730;2023-02-28T08:56:45;5.70;96.50
36716;DHT22;22699;51.034;3.730;2023-02-28T08:59:12;5.60;96.40
36716;DHT22;22699;51.034;3.730;2023-02-28T09:01:38;5.40;95.80
36716;DHT22;22699;51.034;3.730;2023-02-28T09:04:04;5.30;95.50
36716;DHT22;22699;51.034;3.730;2023-02-28T09:06:32;5.30;95.60
36716;DHT22;22699;51.034;3.730;2023-02-28T09:08:58;5.20;95.60
36716;DHT22;22699;51.034;3.730;2023-02-28T09:11:24;5.00;95.80
36716;DHT22;22699;51.034;3.730;2023-02-28T09:13:50;5.00;95.80
36716;DHT22;22699;51.034;3.730;2023-02-28T09:16:16;5.10;95.90
36716;DHT22;22699;51.034;3.730;2023-02-28T09:18:42;5.30;95.80
36716;DHT22;22699;51.034;3.730;2023-02-28T09:21:12;5.40;95.40
36716;DHT22;22699;51.034;3.730;2023-02-28T09:23:50;5.30;95.10
36716;DHT22;22699;51.034;3.730;2023-02-28T09:26:26;5.30;94.90
36716;DHT22;22699;51.034;3.730;2023-02-28T09:28:52;5.40;95.10
36716;DHT22;22699;51.034;3.730;2023-02-28T09:31:24;5.40;94.70
36716;DHT22;22699;51.034;3.730;2023-02-28T09:33:51;5.40;94.60
36716;DHT22;22699;51.034;3.730;2023-02-28T09:36:18;5.50;94.20
36716;DHT22;22699;51.034;3.730;2023-02-28T09:38:44;5.30;93.90
36716;DHT22;22699;51.034;3.730;2023-02-28T09:41:23;5.20;94.00
36716;DHT22;22699;51.034;3.730;2023-02-28T09:43:53;5.30;93.60
36716;DHT22;22699;51.034;3.730;2023-02-28T09:46:37;5.30;93.20
36716;DHT22;22699;51.034;3.730;2023-02-28T09:49:12;5.50;92.60
36716;DHT22;22699;51.034;3.730;2023-02-28T09:54:20;5.50;92.10
36716;DHT22;22699;51.034;3.730;2023-02-28T09:56:53;5.30;91.80
36716;DHT22;22699;51.034;3.730;2023-02-28T09:59:29;5.20;92.00
36716;DHT22;22699;51.034;3.730;2023-02-28T10:07:46;5.50;91.60
36716;DHT22;22699;51.034;3.730;2023-02-28T10:10:26;5.50;90.80
36716;DHT22;22699;51.034;3.730;2023-02-28T10:12:57;5.30;90.70
36716;DHT22;22699;51.034;3.730;2023-02-28T10:15:26;5.20;90.80
36716;DHT22;22699;51.034;3.730;2023-02-28T10:18:03;5.10;90.80
36716;DHT22;22699;51.034;3.730;2023-02-28T10:20:35;5.20;90.60
36716;DHT22;22699;51.034;3.730;2023-02-28T10:23:23;5.20;90.40
36716;DHT22;22699;51.034;3.730;2023-02-28T10:26:01;5.40;89.30
36716;DHT22;22699;51.034;3.730;2023-02-28T10:28:28;5.50;89.40
36716;DHT22;22699;51.034;3.730;2023-02-28T10:30:55;5.70;88.40
36716;DHT22;22699;51.034;3.730;2023-02-28T10:33:34;6.00;86.80
36716;DHT22;22699;51.034;3.730;2023-02-28T10:36:02;6.10;85.90
36716;DHT22;22699;51.034;3.730;2023-02-28T10:38:35;6.30;86.10
36716;DHT22;22699;51.034;3.730;2023-02-28T10:43:30;6.40;84.50
36716;DHT22;22699;51.034;3.730;2023-02-28T10:48:38;6.60;83.60
36716;DHT22;22699;51.034;3.730;2023-02-28T10:51:08;6.80;82.80
36716;DHT22;22699;51.034;3.730;2023-02-28T10:53:50;6.90;81.00
36716;DHT22;22699;51.034;3.730;2023-02-28T10:56:19;7.50;77.60
36716;DHT22;22699;51.034;3.730;2023-02-28T10:58:58;7.60;75.70
36716;DHT22;22699;51.034;3.730;2023-02-28T11:01:44;7.70;75.20
36716;DHT22;22699;51.034;3.730;2023-02-28T11:04:35;7.40;73.70
36716;DHT22;22699;51.034;3.730;2023-02-28T11:07:03;7.20;73.90
36716;DHT22;22699;51.034;3.730;2023-02-28T11:09:39;6.90;75.10
36716;DHT22;22699;51.034;3.730;2023-02-28T11:12:08;6.60;75.50
36716;DHT22;22699;51.034;3.730;2023-02-28T11:15:03;6.40;76.90
36716;DHT22;22699;51.034;3.730;2023-02-28T11:17:31;6.40;76.70
36716;DHT22;22699;51.034;3.730;2023-02-28T11:20:10;6.50;76.70
36716;DHT22;22699;51.034;3.730;2023-02-28T11:22:44;6.50;76.90
36716;DHT22;22699;51.034;3.730;2023-02-28T11:25:32;6.70;76.70
36716;DHT22;22699;51.034;3.730;2023-02-28T11:28:01;6.70;76.60
36716;DHT22;22699;51.034;3.730;2023-02-28T11:30:34;6.70;76.70
36716;DHT22;22699;51.034;3.730;2023-02-28T11:36:20;6.70;76.30
36716;DHT22;22699;51.034;3.730;2023-02-28T11:38:47;6.90;76.30
36716;DHT22;22699;51.034;3.730;2023-02-28T11:41:51;6.90;75.70
36716;DHT22;22699;51.034;3.730;2023-02-28T11:44:58;6.50;75.90
36716;DHT22;22699;51.034;3.730;2023-02-28T11:56:37;6.80;73.80
36716;DHT22;22699;51.034;3.730;2023-02-28T12:05:20;6.70;72.10
36716;DHT22;22699;51.034;3.730;2023-02-28T12:11:38;6.60;71.70
36716;DHT22;22699;51.034;3.730;2023-02-28T12:23:19;6.80;69.20
36716;DHT22;22699;51.034;3.730;2023-02-28T12:26:16;6.80;68.80
36716;DHT22;22699;51.034;3.730;2023-02-28T12:28:50;7.00;68.90
36716;DHT22;22699;51.034;3.730;2023-02-28T12:31:42;7.00;68.20
36716;DHT22;22699;51.034;3.730;2023-02-28T12:34:15;6.80;68.20
36716;DHT22;22699;51.034;3.730;2023-02-28T12:36:46;7.00;67.40
36716;DHT22;22699;51.034;3.730;2023-02-28T12:39:23;6.80;66.80
36716;DHT22;22699;51.034;3.730;2023-02-28T12:42:28;6.90;66.80
36716;DHT22;22699;51.034;3.730;2023-02-28T12:47:52;6.60;65.30
36716;DHT22;22699;51.034;3.730;2023-02-28T12:50:22;6.50;65.80
36716;DHT22;22699;51.034;3.730;2023-02-28T12:58:39;6.50;65.60
36716;DHT22;22699;51.034;3.730;2023-02-28T13:07:06;6.70;63.30
36716;DHT22;22699;51.034;3.730;2023-02-28T13:09:44;6.70;62.90
36716;DHT22;22699;51.034;3.730;2023-02-28T13:12:17;6.60;62.60
36716;DHT22;22699;51.034;3.730;2023-02-28T13:14:43;6.50;62.50
36716;DHT22;22699;51.034;3.730;2023-02-28T13:17:14;6.50;63.30
36716;DHT22;22699;51.034;3.730;2023-02-28T13:24:55;6.90;61.90
36716;DHT22;22699;51.034;3.730;2023-02-28T13:27:39;6.80;61.50
36716;DHT22;22699;51.034;3.730;2023-02-28T13:39:02;7.30;59.80
36716;DHT22;22699;51.034;3.730;2023-02-28T13:46:29;7.20;60.50
36716;DHT22;22699;51.034;3.730;2023-02-28T13:48:55;7.10;60.60
36716;DHT22;22699;51.034;3.730;2023-02-28T13:51:41;7.10;60.70
36716;DHT22;22699;51.034;3.730;2023-02-28T14:05:34;6.80;61.20
36716;DHT22;22699;51.034;3.730;2023-02-28T14:08:06;6.90;61.30
36716;DHT22;22699;51.034;3.730;2023-02-28T14:10:42;6.90;61.00
36716;DHT22;22699;51.034;3.730;2023-02-28T14:13:47;7.00;60.60
36716;DHT22;22699;51.034;3.730;2023-02-28T14:16:17;6.90;60.60
36716;DHT22;22699;51.034;3.730;2023-02-28T14:19:15;6.80;61.10
36716;DHT22;22699;51.034;3.730;2023-02-28T14:24:42;6.70;62.10
36716;DHT22;22699;51.034;3.730;2023-02-28T14:27:22;7.00;62.00
36716;DHT22;22699;51.034;3.730;2023-02-28T14:35:19;6.90;61.40
36716;DHT22;22699;51.034;3.730;2023-02-28T14:37:47;6.80;61.50
36716;DHT22;22699;51.034;3.730;2023-02-28T14:40:21;6.80;61.30
36716;DHT22;22699;51.034;3.730;2023-02-28T14:43:02;6.90;61.30
36716;DHT22;22699;51.034;3.730;2023-02-28T14:45:33;6.90;61.70
36716;DHT22;22699;51.034;3.730;2023-02-28T14:48:05;7.10;60.60
36716;DHT22;22699;51.034;3.730;2023-02-28T14:50:36;7.00;60.50
36716;DHT22;22699;51.034;3.730;2023-02-28T14:53:02;7.10;60.60
36716;DHT22;22699;51.034;3.730;2023-02-28T14:55:34;7.00;60.80
36716;DHT22;22699;51.034;3.730;2023-02-28T14:58:05;6.90;60.80
36716;DHT22;22699;51.034;3.730;2023-02-28T15:00:40;6.80;61.20
36716;DHT22;22699;51.034;3.730;2023-02-28T15:03:27;6.70;62.50
36716;DHT22;22699;51.034;3.730;2023-02-28T15:06:02;6.80;61.80
36716;DHT22;22699;51.034;3.730;2023-02-28T15:08:29;6.70;62.00
36716;DHT22;22699;51.034;3.730;2023-02-28T15:11:06;6.70;61.80
36716;DHT22;22699;51.034;3.730;2023-02-28T15:13:51;6.50;62.10
36716;DHT22;22699;51.034;3.730;2023-02-28T15:16:25;6.50;62.20
36716;DHT22;22699;51.034;3.730;2023-02-28T15:19:29;6.40;62.40
36716;DHT22;22699;51.034;3.730;2023-02-28T15:22:16;6.40;62.40
36716;DHT22;22699;51.034;3.730;2023-02-28T15:24:44;6.40;62.70
36716;DHT22;22699;51.034;3.730;2023-02-28T15:27:33;6.50;62.60
36716;DHT22;22699;51.034;3.730;2023-02-28T15:30:08;6.40;62.70
36716;DHT22;22699;51.034;3.730;2023-02-28T15:32:36;6.30;63.30
36716;DHT22;22699;51.034;3.730;2023-02-28T15:35:28;6.30;63.70
36716;DHT22;22699;51.034;3.730;2023-02-28T15:38:13;6.20;63.70
36716;DHT22;22699;51.034;3.730;2023-02-28T15:40:49;6.30;63.90
36716;DHT22;22699;51.034;3.730;2023-02-28T15:43:30;6.40;63.90
36716;DHT22;22699;51.034;3.730;2023-02-28T15:46:11;6.40;63.80
36716;DHT22;22699;51.034;3.730;2023-02-28T15:48:55;6.40;63.90
36716;DHT22;22699;51.034;3.730;2023-02-28T15:51:32;6.50;64.00
36716;DHT22;22699;51.034;3.730;2023-02-28T15:54:06;6.50;63.50
36716;DHT22;22699;51.034;3.730;2023-02-28T15:56:51;6.30;63.80
36716;DHT22;22699;51.034;3.730;2023-02-28T15:59:22;6.40;64.10
36716;DHT22;22699;51.034;3.730;2023-02-28T16:07:32;6.70;63.80
36716;DHT22;22699;51.034;3.730;2023-02-28T16:09:58;6.60;64.20
36716;DHT22;22699;51.034;3.730;2023-02-28T16:12:33;6.50;64.50
36716;DHT22;22699;51.034;3.730;2023-02-28T16:15:29;6.40;65.00
36716;DHT22;22699;51.034;3.730;2023-02-28T16:18:01;6.30;64.80
36716;DHT22;22699;51.034;3.730;2023-02-28T16:20:30;6.20;65.00
36716;DHT22;22699;51.034;3.730;2023-02-28T16:22:56;6.10;65.60
36716;DHT22;22699;51.034;3.730;2023-02-28T16:25:33;6.10;66.00
36716;DHT22;22699;51.034;3.730;2023-02-28T16:27:59;6.10;66.20
36716;DHT22;22699;51.034;3.730;2023-02-28T16:30:28;6.20;66.30
36716;DHT22;22699;51.034;3.730;2023-02-28T16:32:57;6.30;66.30
36716;DHT22;22699;51.034;3.730;2023-02-28T16:35:25;6.20;66.00
36716;DHT22;22699;51.034;3.730;2023-02-28T16:37:51;6.30;66.00
36716;DHT22;22699;51.034;3.730;2023-02-28T16:40:22;6.30;66.30
36716;DHT22;22699;51.034;3.730;2023-02-28T16:42:50;6.40;66.10
36716;DHT22;22699;51.034;3.730;2023-02-28T16:45:24;6.30;66.10
36716;DHT22;22699;51.034;3.730;2023-02-28T16:47:51;6.20;66.30
36716;DHT22;22699;51.034;3.730;2023-02-28T16:50:22;6.20;66.70
36716;DHT22;22699;51.034;3.730;2023-02-28T16:52:49;6.10;66.60
36716;DHT22;22699;51.034;3.730;2023-02-28T16:55:15;6.10;67.10
36716;DHT22;22699;51.034;3.730;2023-02-28T16:57:42;6.10;67.00
36716;DHT22;22699;51.034;3.730;2023-02-28T17:00:12;6.10;67.20
36716;DHT22;22699;51.034;3.730;2023-02-28T17:02:38;6.10;67.50
36716;DHT22;22699;51.034;3.730;2023-02-28T17:05:04;5.90;67.60
36716;DHT22;22699;51.034;3.730;2023-02-28T17:07:30;5.80;68.00
36716;DHT22;22699;51.034;3.730;2023-02-28T17:09:56;5.90;68.20
36716;DHT22;22699;51.034;3.730;2023-02-28T17:12:21;6.10;68.40
36716;DHT22;22699;51.034;3.730;2023-02-28T17:14:49;5.90;69.20
36716;DHT22;22699;51.034;3.730;2023-02-28T17:17:20;5.90;68.60
36716;DHT22;22699;51.034;3.730;2023-02-28T17:19:48;5.90;69.30
36716;DHT22;22699;51.034;3.730;2023-02-28T17:22:13;6.00;68.80
36716;DHT22;22699;51.034;3.730;2023-02-28T17:24:39;6.00;68.70
36716;DHT22;22699;51.034;3.730;2023-02-28T17:27:05;5.90;69.10
36716;DHT22;22699;51.034;3.730;2023-02-28T17:29:31;5.90;69.20
36716;DHT22;22699;51.034;3.730;2023-02-28T17:31:57;5.80;69.30
36716;DHT22;22699;51.034;3.730;2023-02-28T17:34:23;5.80;69.50
36716;DHT22;22699;51.034;3.730;2023-02-28T17:36:50;5.70;69.70
36716;DHT22;22699;51.034;3.730;2023-02-28T17:39:17;5.80;70.10
36716;DHT22;22699;51.034;3.730;2023-02-28T17:41:52;5.80;70.20
36716;DHT22;22699;51.034;3.730;2023-02-28T17:44:18;5.70;70.30
36716;DHT22;22699;51.034;3.730;2023-02-28T17:46:45;5.70;70.30
36716;DHT22;22699;51.034;3.730;2023-02-28T17:49:10;5.60;70.50
36716;DHT22;22699;51.034;3.730;2023-02-28T17:51:38;5.60;70.70
36716;DHT22;22699;51.034;3.730;2023-02-28T17:54:04;5.50;70.90
36716;DHT22;22699;51.034;3.730;2023-02-28T17:56:30;5.60;71.10
36716;DHT22;22699;51.034;3.730;2023-02-28T17:58:57;5.60;70.90
36716;DHT22;22699;51.034;3.730;2023-02-28T18:01:23;5.60;70.90
36716;DHT22;22699;51.034;3.730;2023-02-28T18:03:52;5.50;71.30
36716;DHT22;22699;51.034;3.730;2023-02-28T18:06:44;5.40;71.80
36716;DHT22;22699;51.034;3.730;2023-02-28T18:09:17;5.30;72.10
36716;DHT22;22699;51.034;3.730;2023-02-28T18:11:43;5.30;72.80
36716;DHT22;22699;51.034;3.730;2023-02-28T18:14:13;5.30;72.10